createdAt,value
2023-02-03T00:00:28.745Z,3.42
2023-02-03T00:03:03.279Z,4.28
2023-02-03T00:05:37.923Z,4.25
2023-02-03T00:08:12.349Z,4.28
2023-02-03T00:10:46.231Z,4.90
2023-02-03T00:13:20.014Z,4.32
2023-02-03T00:15:54.992Z,5.53
2023-02-03T00:18:29.451Z,5.40
2023-02-03T00:21:03.041Z,5.40
2023-02-03T00:23:37.017Z,6.10
2023-02-03T00:26:11.614Z,7.25
2023-02-03T00:28:45.768Z,6.80
2023-02-03T00:31:23.315Z,7.25
2023-02-03T00:33:58.669Z,7.13
2023-02-03T00:36:32.288Z,7.18
2023-02-03T00:39:06.311Z,7.28
2023-02-03T00:41:40.380Z,7.40
2023-02-03T00:44:15.335Z,6.65
2023-02-03T00:46:50.276Z,6.40
2023-02-03T00:49:24.073Z,6.50
2023-02-03T00:51:57.674Z,6.55
2023-02-03T00:54:32.768Z,7.43
2023-02-03T00:57:07.460Z,6.90
2023-02-03T00:59:41.468Z,6.53
2023-02-03T01:02:17.098Z,7.30
2023-02-03T01:04:51.141Z,7.50
2023-02-03T01:07:24.677Z,7.10
2023-02-03T01:09:58.401Z,7.53
2023-02-03T01:12:32.589Z,6.97
2023-02-03T01:15:07.336Z,7.32
2023-02-03T01:17:42.401Z,6.60
2023-02-03T01:20:17.211Z,7.70
2023-02-03T01:22:50.900Z,7.93
2023-02-03T01:25:24.664Z,7.85
2023-02-03T01:27:58.460Z,6.68
2023-02-03T01:30:32.543Z,7.22
2023-02-03T01:33:10.529Z,7.50
2023-02-03T01:35:44.325Z,7.97
2023-02-03T01:38:18.043Z,7.03
2023-02-03T01:40:51.914Z,7.07
2023-02-03T01:43:33.159Z,6.53
2023-02-03T01:46:23.647Z,6.10
2023-02-03T01:49:06.323Z,6.50
2023-02-03T01:51:43.852Z,6.05
2023-02-03T01:54:20.287Z,6.22
2023-02-03T01:56:57.095Z,5.72
2023-02-03T01:59:32.700Z,5.82
2023-02-03T02:02:08.591Z,6.30
2023-02-03T02:04:53.053Z,6.38
2023-02-03T02:07:27.290Z,6.72
2023-02-03T02:10:01.721Z,6.00
2023-02-03T02:12:35.623Z,6.53
2023-02-03T02:15:10.515Z,6.55
2023-02-03T02:18:03.644Z,6.22
2023-02-03T02:21:02.596Z,6.82
2023-02-03T02:24:16.368Z,5.80
2023-02-03T02:27:01.820Z,6.15
2023-02-03T02:30:09.117Z,5.70
2023-02-03T02:33:05.196Z,5.30
2023-02-03T02:35:51.832Z,5.68
2023-02-03T02:38:40.500Z,5.40
2023-02-03T02:43:59.105Z,4.75
2023-02-03T02:46:37.270Z,5.95
2023-02-03T02:49:18.413Z,4.93
2023-02-03T02:51:54.164Z,5.13
2023-02-03T02:54:30.780Z,6.38
2023-02-03T02:57:06.909Z,5.22
2023-02-03T02:59:40.557Z,5.28
2023-02-03T03:02:14.557Z,5.07
2023-02-03T03:04:51.586Z,4.93
2023-02-03T03:07:29.025Z,4.88
2023-02-03T03:10:06.511Z,4.13
2023-02-03T03:12:46.488Z,4.20
2023-02-03T03:15:23.887Z,4.55
2023-02-03T03:18:02.805Z,4.90
2023-02-03T03:20:40.429Z,4.10
2023-02-03T03:23:20.396Z,4.45
2023-02-03T03:25:58.870Z,3.80
2023-02-03T03:28:38.599Z,3.63
2023-02-03T03:31:12.353Z,3.45
2023-02-03T03:33:47.331Z,4.28
2023-02-03T03:36:27.909Z,2.88
2023-02-03T03:39:06.508Z,3.28
2023-02-03T03:41:49.281Z,3.80
2023-02-03T03:44:26.668Z,3.47
2023-02-03T03:47:07.531Z,2.78
2023-02-03T03:49:45.429Z,3.58
2023-02-03T03:52:25.788Z,3.13
2023-02-03T03:55:01.622Z,2.58
2023-02-03T03:57:39.438Z,2.83
2023-02-03T04:00:19.063Z,2.63
2023-02-03T04:02:55.504Z,2.50
2023-02-03T04:05:29.574Z,2.75
2023-02-03T04:08:04.520Z,3.40
2023-02-03T04:10:40.334Z,3.15
2023-02-03T04:13:15.904Z,3.13
2023-02-03T04:15:49.792Z,3.50
2023-02-03T04:18:23.445Z,3.30
2023-02-03T04:20:57.201Z,3.20
2023-02-03T04:23:32.182Z,3.17
2023-02-03T04:26:06.289Z,3.47
2023-02-03T04:28:39.998Z,3.00
2023-02-03T04:31:13.962Z,2.78
2023-02-03T04:33:47.982Z,3.67
2023-02-03T04:36:22.124Z,2.72
2023-02-03T04:38:57.177Z,3.08
2023-02-03T04:41:31.040Z,2.90
2023-02-03T04:44:04.859Z,3.13
2023-02-03T04:46:38.583Z,2.40
2023-02-03T04:49:12.302Z,3.15
2023-02-03T04:51:46.333Z,2.65
2023-02-03T04:54:21.504Z,3.33
2023-02-03T04:56:55.658Z,3.10
2023-02-03T04:59:29.369Z,3.00
2023-02-03T05:02:04.215Z,3.30
2023-02-03T05:04:37.870Z,3.78
2023-02-03T05:07:11.703Z,3.60
2023-02-03T05:09:46.635Z,4.15
2023-02-03T05:12:20.489Z,4.22
2023-02-03T05:14:54.032Z,3.83
2023-02-03T05:17:27.859Z,3.50
2023-02-03T05:20:01.849Z,4.15
2023-02-03T05:22:36.618Z,4.05
2023-02-03T05:25:11.736Z,4.38
2023-02-03T05:27:45.647Z,3.85
2023-02-03T05:30:19.760Z,3.85
2023-02-03T05:32:53.587Z,4.07
2023-02-03T05:35:27.337Z,3.83
2023-02-03T05:38:01.510Z,4.05
2023-02-03T05:40:59.554Z,4.13
2023-02-03T05:43:34.199Z,3.63
2023-02-03T05:46:08.906Z,3.70
2023-02-03T05:48:42.728Z,3.72
2023-02-03T05:51:16.474Z,3.28
2023-02-03T05:53:50.355Z,3.60
2023-02-03T05:56:25.458Z,3.67
2023-02-03T05:58:59.358Z,3.80
2023-02-03T06:01:33.804Z,3.25
2023-02-03T06:04:08.048Z,3.45
2023-02-03T06:06:41.673Z,3.30
2023-02-03T06:09:15.525Z,2.90
2023-02-03T06:11:50.639Z,2.70
2023-02-03T06:14:24.678Z,2.80
2023-02-03T06:16:58.313Z,3.17
2023-02-03T06:19:32.079Z,2.60
2023-02-03T06:22:05.713Z,2.60
2023-02-03T06:24:39.545Z,1.90
2023-02-03T06:27:14.724Z,2.83
2023-02-03T06:29:48.567Z,2.08
2023-02-03T06:32:22.388Z,2.08
2023-02-03T06:34:56.173Z,2.00
2023-02-03T06:37:29.742Z,2.13
2023-02-03T06:40:04.392Z,2.30
2023-02-03T06:42:39.758Z,2.75
2023-02-03T06:45:13.693Z,2.55
2023-02-03T06:47:47.461Z,2.40
2023-02-03T06:50:21.259Z,2.40
2023-02-03T06:52:54.787Z,2.58
2023-02-03T06:55:28.763Z,2.80
2023-02-03T06:58:03.680Z,2.75
2023-02-03T07:00:37.606Z,2.75
2023-02-03T07:03:11.218Z,4.13
2023-02-03T07:05:48.926Z,2.75
2023-02-03T07:08:28.355Z,2.83
2023-02-03T07:11:02.228Z,2.60
2023-02-03T07:13:37.982Z,2.78
2023-02-03T07:16:12.036Z,3.33
2023-02-03T07:18:47.955Z,2.85
2023-02-03T07:21:23.036Z,2.20
2023-02-03T07:23:56.681Z,2.30
2023-02-03T07:26:30.833Z,2.60
2023-02-03T07:29:06.196Z,3.03
2023-02-03T07:31:40.270Z,2.10
2023-02-03T07:34:14.152Z,2.67
2023-02-03T07:36:48.201Z,1.85
2023-02-03T07:39:22.137Z,2.10
2023-02-03T07:41:55.906Z,1.65
2023-02-03T07:44:31.053Z,1.90
2023-02-03T07:47:04.978Z,2.40
2023-02-03T07:49:38.491Z,2.75
2023-02-03T07:52:12.290Z,2.35
2023-02-03T07:54:45.953Z,2.75
2023-02-03T07:57:20.069Z,2.40
2023-02-03T07:59:55.170Z,2.30
2023-02-03T08:02:29.337Z,2.35
2023-02-03T08:05:02.997Z,7.20
2023-02-03T08:07:37.059Z,2.90
2023-02-03T08:10:13.264Z,2.92
2023-02-03T08:12:48.078Z,2.65
2023-02-03T08:15:23.286Z,2.25
2023-02-03T08:17:57.330Z,2.75
2023-02-03T08:20:31.201Z,2.85
2023-02-03T08:23:05.996Z,2.78
2023-02-03T08:25:39.615Z,3.47
2023-02-03T08:28:13.772Z,3.28
2023-02-03T08:30:48.940Z,2.97
2023-02-03T08:33:22.811Z,3.13
2023-02-03T08:35:57.274Z,3.60
2023-02-03T08:38:31.161Z,3.53
2023-02-03T08:41:10.788Z,3.90
2023-02-03T08:43:44.921Z,4.45
2023-02-03T08:46:20.014Z,3.60
2023-02-03T08:48:56.522Z,4.63
2023-02-03T08:51:30.205Z,4.35
2023-02-03T08:54:04.430Z,4.88
2023-02-03T08:56:38.210Z,4.50
2023-02-03T08:59:12.456Z,4.93
2023-02-03T09:01:48.508Z,5.85
2023-02-03T09:04:24.790Z,5.38
2023-02-03T09:06:58.654Z,6.38
2023-02-03T09:09:33.382Z,4.90
2023-02-03T09:12:07.869Z,6.55
2023-02-03T09:14:41.615Z,4.93
2023-02-03T09:17:16.515Z,5.68
2023-02-03T09:19:50.371Z,4.75
2023-02-03T09:22:23.874Z,6.82
2023-02-03T09:24:57.772Z,5.05
2023-02-03T09:27:31.337Z,7.00
2023-02-03T09:30:05.928Z,6.47
2023-02-03T09:32:40.902Z,6.25
2023-02-03T09:35:14.640Z,6.43
2023-02-03T09:37:48.859Z,5.80
2023-02-03T09:40:27.408Z,6.28
2023-02-03T09:43:24.018Z,6.10
2023-02-03T09:46:02.887Z,6.32
2023-02-03T09:48:40.874Z,7.43
2023-02-03T09:51:21.691Z,7.13
2023-02-03T09:53:59.616Z,7.20
2023-02-03T09:56:35.658Z,8.20
2023-02-03T09:59:11.269Z,7.35
2023-02-03T10:01:55.303Z,7.15
2023-02-03T10:04:39.924Z,7.28
2023-02-03T10:07:20.306Z,6.78
2023-02-03T10:09:59.926Z,7.32
2023-02-03T10:13:05.648Z,6.57
2023-02-03T10:16:15.381Z,8.18
2023-02-03T10:18:54.308Z,7.38
2023-02-03T10:21:37.060Z,8.82
2023-02-03T10:24:15.797Z,9.82
2023-02-03T10:26:50.856Z,7.63
2023-02-03T10:29:33.552Z,7.78
2023-02-03T10:32:10.509Z,7.43
2023-02-03T10:34:48.201Z,7.22
2023-02-03T10:37:30.277Z,7.85
2023-02-03T10:40:06.040Z,7.68
2023-02-03T10:42:56.601Z,7.30
2023-02-03T10:45:32.733Z,6.47
2023-02-03T10:48:10.078Z,8.23
2023-02-03T10:50:47.725Z,7.07
2023-02-03T10:53:25.776Z,7.22
2023-02-03T10:56:06.588Z,8.20
2023-02-03T10:58:47.862Z,8.90
2023-02-03T11:01:25.863Z,7.63
2023-02-03T11:04:03.107Z,6.63
2023-02-03T11:06:37.045Z,6.95
2023-02-03T11:09:25.235Z,8.25
2023-02-03T11:12:13.538Z,7.75
2023-02-03T11:14:49.226Z,7.50
2023-02-03T11:17:26.985Z,6.53
2023-02-03T11:20:06.488Z,7.70
2023-02-03T11:22:43.276Z,7.40
2023-02-03T11:25:21.352Z,8.48
2023-02-03T11:27:56.855Z,7.40
2023-02-03T11:30:31.100Z,7.60
2023-02-03T11:33:18.702Z,7.20
2023-02-03T11:35:58.971Z,6.30
2023-02-03T11:38:36.873Z,7.15
2023-02-03T11:41:18.907Z,7.03
2023-02-03T11:43:57.916Z,5.85
2023-02-03T11:46:31.704Z,7.00
2023-02-03T11:49:18.363Z,6.75
2023-02-03T11:51:59.637Z,7.65
2023-02-03T11:54:44.983Z,7.07
2023-02-03T11:57:31.892Z,6.10
2023-02-03T12:00:19.605Z,6.65
2023-02-03T12:03:11.926Z,7.32
2023-02-03T12:06:03.028Z,7.50
2023-02-03T12:08:52.335Z,7.20
2023-02-03T12:11:41.280Z,6.45
2023-02-03T12:14:30.756Z,6.78
2023-02-03T12:17:37.828Z,6.72
2023-02-03T12:20:29.632Z,7.10
2023-02-03T12:23:16.929Z,8.20
2023-02-03T12:26:03.731Z,6.13
2023-02-03T12:28:46.915Z,6.25
2023-02-03T12:31:29.816Z,5.75
2023-02-03T12:34:14.657Z,6.88
2023-02-03T12:36:54.422Z,6.05
2023-02-03T12:39:34.837Z,6.45
2023-02-03T12:42:16.458Z,6.05
2023-02-03T12:44:55.198Z,6.82
2023-02-03T12:47:35.925Z,6.75
2023-02-03T12:50:18.984Z,6.60
2023-02-03T12:52:56.645Z,6.07
2023-02-03T12:55:35.860Z,6.78
2023-02-03T12:58:15.969Z,7.65
2023-02-03T13:00:54.282Z,7.50
2023-02-03T13:03:36.703Z,5.95
2023-02-03T13:06:17.862Z,6.65
2023-02-03T13:08:57.339Z,5.95
2023-02-03T13:11:39.042Z,5.40
2023-02-03T13:14:19.846Z,6.22
2023-02-03T13:16:58.350Z,5.60
2023-02-03T13:19:42.180Z,6.80
2023-02-03T13:22:17.573Z,5.57
2023-02-03T13:24:56.648Z,6.35
2023-02-03T13:27:45.678Z,5.30
2023-02-03T13:33:32.158Z,4.95
2023-02-03T13:36:25.298Z,5.18
2023-02-03T13:39:16.698Z,6.07
2023-02-03T13:41:54.994Z,6.38
2023-02-03T13:44:30.767Z,5.70
2023-02-03T13:47:04.873Z,4.85
2023-02-03T13:49:38.934Z,7.00
2023-02-03T13:52:33.615Z,5.57
2023-02-03T13:55:09.444Z,5.72
2023-02-03T13:57:43.177Z,6.18
2023-02-03T14:00:50.636Z,5.65
2023-02-03T14:03:43.313Z,6.25
2023-02-03T14:06:56.972Z,6.57
2023-02-03T14:09:42.715Z,8.48
2023-02-03T14:12:56.820Z,5.40
2023-02-03T14:15:34.395Z,7.93
2023-02-03T14:18:33.616Z,6.15
2023-02-03T14:21:19.289Z,5.55
2023-02-03T14:24:07.023Z,4.85
2023-02-03T14:26:44.887Z,5.47
2023-02-03T14:29:27.448Z,5.90
2023-02-03T14:32:02.950Z,4.93
2023-02-03T14:34:42.334Z,8.05
2023-02-03T14:37:21.028Z,5.15
2023-02-03T14:40:31.508Z,6.03
2023-02-03T14:43:26.902Z,6.05
2023-02-03T14:46:41.465Z,7.70
2023-02-03T14:49:30.759Z,5.30
2023-02-03T14:52:29.553Z,6.60
2023-02-03T14:55:18.796Z,6.63
2023-02-03T14:57:56.174Z,6.07
2023-02-03T15:00:34.512Z,7.07
2023-02-03T15:03:27.644Z,5.47
2023-02-03T15:06:03.214Z,6.47
2023-02-03T15:08:45.954Z,5.90
2023-02-03T15:11:27.003Z,5.15
2023-02-03T15:14:21.561Z,6.15
2023-02-03T15:17:02.694Z,6.70
2023-02-03T15:19:41.075Z,9.98
2023-02-03T15:22:23.091Z,7.05
2023-02-03T15:25:00.767Z,7.30
2023-02-03T15:27:34.823Z,9.80
2023-02-03T15:30:20.248Z,8.13
2023-02-03T15:33:01.561Z,6.13
2023-02-03T15:35:39.141Z,6.88
2023-02-03T15:38:16.495Z,6.50
2023-02-03T15:40:54.672Z,5.47
2023-02-03T15:43:33.666Z,6.05
2023-02-03T15:46:14.962Z,5.75
2023-02-03T15:48:53.861Z,7.20
2023-02-03T15:54:10.275Z,5.90
2023-02-03T15:56:48.685Z,6.50
2023-02-03T15:59:25.136Z,6.60
2023-02-03T16:02:01.233Z,8.07
2023-02-03T16:04:36.326Z,6.15
2023-02-03T16:07:19.086Z,7.72
2023-02-03T16:09:54.196Z,6.70
2023-02-03T16:12:29.797Z,5.47
2023-02-03T16:15:03.431Z,6.45
2023-02-03T16:17:39.306Z,7.28
2023-02-03T16:20:24.815Z,5.57
2023-02-03T16:23:07.483Z,7.50
2023-02-03T16:25:41.123Z,5.30
2023-02-03T16:28:39.870Z,7.68
2023-02-03T16:31:34.555Z,6.88
2023-02-03T16:34:33.772Z,6.53
2023-02-03T16:37:41.759Z,8.93
2023-02-03T16:40:36.907Z,7.82
2023-02-03T16:43:32.432Z,6.68
2023-02-03T16:46:29.893Z,7.10
2023-02-03T16:49:20.996Z,8.30
2023-02-03T16:51:54.850Z,6.78
2023-02-03T16:54:29.912Z,5.65
2023-02-03T16:57:03.801Z,9.52
2023-02-03T16:59:37.393Z,7.78
2023-02-03T17:02:11.701Z,5.97
2023-02-03T17:04:45.270Z,7.10
2023-02-03T17:07:19.096Z,7.10
2023-02-03T17:09:54.213Z,7.57
2023-02-03T17:12:33.538Z,8.98
2023-02-03T17:15:08.447Z,7.07
2023-02-03T17:17:42.347Z,6.93
2023-02-03T17:20:15.982Z,7.07
2023-02-03T17:22:51.683Z,6.85
2023-02-03T17:25:29.213Z,8.20
2023-02-03T17:28:03.502Z,8.50
2023-02-03T17:30:41.308Z,7.13
2023-02-03T17:33:15.328Z,7.38
2023-02-03T17:35:48.883Z,8.05
2023-02-03T17:38:22.735Z,7.95
2023-02-03T17:55:17.496Z,7.63
2023-02-03T17:57:52.569Z,8.23
2023-02-03T18:00:27.041Z,8.45
2023-02-03T18:03:00.700Z,7.82
2023-02-03T18:05:36.886Z,7.18
2023-02-03T18:08:16.197Z,7.68
2023-02-03T18:10:57.792Z,6.45
2023-02-03T18:13:36.336Z,7.15
2023-02-03T18:16:15.128Z,6.70
2023-02-03T18:18:51.365Z,7.50
2023-02-03T18:21:26.301Z,6.55
2023-02-03T18:24:01.861Z,6.90
2023-02-03T18:26:37.258Z,7.68
2023-02-03T18:29:13.509Z,7.63
2023-02-03T18:31:47.869Z,7.07
2023-02-03T18:34:21.523Z,7.22
2023-02-03T18:36:55.487Z,7.80
2023-02-03T18:39:29.133Z,6.32
2023-02-03T18:42:03.987Z,7.03
2023-02-03T18:44:39.577Z,7.72
2023-02-03T18:47:17.401Z,5.43
2023-02-03T18:49:51.284Z,5.93
2023-02-03T18:52:25.046Z,5.63
2023-02-03T18:54:58.578Z,6.72
2023-02-03T18:57:32.816Z,6.45
2023-02-03T19:00:09.572Z,6.65
2023-02-03T19:02:43.553Z,7.45
2023-02-03T19:05:17.606Z,8.18
2023-02-03T19:07:51.914Z,5.72
2023-02-03T19:10:25.294Z,8.23
2023-02-03T19:12:59.144Z,6.85
2023-02-03T19:15:34.192Z,7.88
2023-02-03T19:18:08.227Z,6.50
2023-02-03T19:20:43.908Z,4.72
2023-02-03T19:23:17.955Z,5.03
2023-02-03T19:25:51.973Z,5.35
2023-02-03T19:28:31.038Z,5.70
2023-02-03T19:31:08.831Z,5.30
2023-02-03T19:33:43.441Z,4.07
2023-02-03T19:36:17.386Z,4.53
2023-02-03T19:38:51.258Z,4.32
2023-02-03T19:41:25.730Z,5.13
2023-02-03T19:43:59.559Z,3.45
2023-02-03T19:46:37.834Z,3.80
2023-02-03T19:49:13.294Z,3.88
2023-02-03T19:51:47.003Z,3.05
2023-02-03T19:54:20.776Z,3.35
2023-02-03T19:56:54.300Z,3.90
2023-02-03T19:59:28.215Z,2.25
2023-02-03T20:02:13.669Z,2.22
2023-02-03T20:04:49.982Z,3.17
2023-02-03T20:07:25.316Z,2.17
2023-02-03T20:09:59.275Z,2.47
2023-02-03T20:12:32.793Z,2.10
2023-02-03T20:15:07.600Z,1.98
2023-02-03T20:17:43.716Z,2.63
2023-02-03T20:20:20.402Z,2.33
2023-02-03T20:22:54.434Z,1.90
2023-02-03T20:25:29.176Z,1.70
2023-02-03T20:28:03.848Z,2.08
2023-02-03T20:30:38.818Z,2.33
2023-02-03T20:33:14.012Z,2.83
2023-02-03T20:35:48.006Z,2.90
2023-02-03T20:38:21.708Z,1.75
2023-02-03T20:40:55.519Z,2.00
2023-02-03T20:43:29.281Z,1.42
2023-02-03T20:46:03.438Z,1.40
2023-02-03T20:48:38.610Z,2.13
2023-02-03T20:51:12.824Z,1.35
2023-02-03T20:53:46.604Z,1.60
2023-02-03T20:56:22.618Z,1.85
2023-02-03T20:58:56.519Z,1.48
2023-02-03T21:01:30.462Z,1.60
2023-02-03T21:04:29.755Z,1.55
2023-02-03T21:07:11.806Z,1.58
2023-02-03T21:09:45.449Z,1.52
2023-02-03T21:12:19.181Z,1.33
2023-02-03T21:14:55.138Z,1.23
2023-02-03T21:17:28.869Z,1.63
2023-02-03T21:20:04.309Z,1.73
2023-02-03T21:22:38.397Z,1.65
2023-02-03T21:25:26.775Z,1.40
2023-02-03T21:28:01.642Z,1.10
2023-02-03T21:30:35.442Z,1.13
2023-02-03T21:33:30.439Z,0.95
2023-02-03T21:36:05.997Z,0.88
2023-02-03T21:38:40.445Z,1.13
2023-02-03T21:41:18.348Z,1.05
2023-02-03T21:43:54.651Z,1.50
2023-02-03T21:46:30.463Z,1.05
2023-02-03T21:49:05.516Z,1.08
2023-02-03T21:51:41.558Z,1.25
2023-02-03T21:54:26.250Z,1.33
2023-02-03T21:57:00.008Z,1.40
2023-02-03T21:59:42.230Z,1.70
2023-02-03T22:02:49.708Z,2.28
2023-02-03T22:05:23.455Z,1.42
2023-02-03T22:07:58.326Z,1.80
2023-02-03T22:10:32.226Z,1.58
2023-02-03T22:13:06.834Z,1.30
2023-02-03T22:15:40.703Z,1.90
2023-02-03T22:18:14.354Z,2.40
2023-02-03T22:20:48.238Z,1.48
2023-02-03T22:23:23.173Z,1.27
2023-02-03T22:25:56.972Z,2.65
2023-02-03T22:28:30.629Z,1.70
2023-02-03T22:31:05.595Z,1.70
2023-02-03T22:33:39.825Z,1.30
2023-02-03T22:36:14.432Z,3.58
2023-02-03T22:38:49.281Z,1.50
2023-02-03T22:41:23.110Z,1.52
2023-02-03T22:43:56.609Z,1.67
2023-02-03T22:46:30.504Z,1.73
2023-02-03T22:49:04.079Z,0.98
2023-02-03T22:51:37.799Z,1.20
2023-02-03T22:54:12.699Z,1.27
2023-02-03T22:56:46.395Z,1.20
2023-02-03T22:59:19.844Z,1.10
2023-02-03T23:01:53.763Z,0.88
2023-02-03T23:04:27.402Z,1.00
2023-02-03T23:07:01.461Z,1.00
2023-02-03T23:09:36.530Z,1.27
2023-02-03T23:12:10.332Z,1.10
2023-02-03T23:14:43.880Z,0.82
2023-02-03T23:17:17.716Z,1.10
2023-02-03T23:19:51.225Z,0.82
2023-02-03T23:22:25.015Z,1.08
2023-02-03T23:25:00.413Z,1.08
2023-02-03T23:27:34.281Z,3.38
2023-02-03T23:30:08.970Z,1.00
2023-02-03T23:32:42.942Z,0.93
2023-02-03T23:35:34.560Z,1.20
2023-02-03T23:38:08.270Z,1.00
2023-02-03T23:40:43.450Z,1.20
2023-02-03T23:43:17.283Z,1.15
2023-02-03T23:45:50.873Z,1.38
2023-02-03T23:48:24.630Z,1.50
2023-02-03T23:50:58.196Z,1.40
2023-02-03T23:53:32.016Z,1.60
2023-02-03T23:56:07.327Z,1.70
2023-02-03T23:58:41.133Z,0.90
